sensor_id;sensor_type;location;lat;lon;timestamp;P1;durP1;ratioP1;P2;durP2;ratioP2
15889;SDS011;8043;49.388;12.128;2022-12-29T00:02:35;4.77;;;2.57;;
15889;SDS011;8043;49.388;12.128;2022-12-29T00:07:37;5.13;;;2.00;;
15889;SDS011;8043;49.388;12.128;2022-12-29T00:12:39;3.97;;;2.70;;
15889;SDS011;8043;49.388;12.128;2022-12-29T00:17:59;2.93;;;2.37;;
15889;SDS011;8043;49.388;12.128;2022-12-29T00:23:01;3.30;;;2.13;;
15889;SDS011;8043;49.388;12.128;2022-12-29T00:28:21;4.53;;;2.67;;
15889;SDS011;8043;49.388;12.128;2022-12-29T00:33:41;5.50;;;2.95;;
15889;SDS011;8043;49.388;12.128;2022-12-29T00:39:03;3.70;;;2.47;;
15889;SDS011;8043;49.388;12.128;2022-12-29T00:44:25;2.77;;;2.03;;
15889;SDS011;8043;49.388;12.128;2022-12-29T00:49:27;5.27;;;2.73;;
15889;SDS011;8043;49.388;12.128;2022-12-29T00:54:33;3.07;;;1.77;;
15889;SDS011;8043;49.388;12.128;2022-12-29T00:59:38;4.77;;;2.43;;
15889;SDS011;8043;49.388;12.128;2022-12-29T01:04:41;2.87;;;1.98;;
15889;SDS011;8043;49.388;12.128;2022-12-29T01:09:43;3.90;;;2.17;;
15889;SDS011;8043;49.388;12.128;2022-12-29T01:15:03;4.57;;;2.13;;
15889;SDS011;8043;49.388;12.128;2022-12-29T01:20:06;3.37;;;2.03;;
15889;SDS011;8043;49.388;12.128;2022-12-29T01:25:09;4.47;;;2.50;;
15889;SDS011;8043;49.388;12.128;2022-12-29T01:30:11;5.50;;;2.00;;
15889;SDS011;8043;49.388;12.128;2022-12-29T01:35:13;3.05;;;2.10;;
15889;SDS011;8043;49.388;12.128;2022-12-29T01:40:16;4.13;;;2.37;;
15889;SDS011;8043;49.388;12.128;2022-12-29T01:45:18;3.13;;;2.20;;
15889;SDS011;8043;49.388;12.128;2022-12-29T01:55:26;3.45;;;1.90;;
15889;SDS011;8043;49.388;12.128;2022-12-29T02:00:30;5.90;;;2.13;;
15889;SDS011;8043;49.388;12.128;2022-12-29T02:10:43;3.47;;;2.57;;
15889;SDS011;8043;49.388;12.128;2022-12-29T02:21:39;3.27;;;2.57;;
15889;SDS011;8043;49.388;12.128;2022-12-29T02:32:14;2.67;;;2.17;;
15889;SDS011;8043;49.388;12.128;2022-12-29T02:37:39;4.40;;;2.07;;
15889;SDS011;8043;49.388;12.128;2022-12-29T02:42:59;4.17;;;2.33;;
15889;SDS011;8043;49.388;12.128;2022-12-29T02:53:20;4.90;;;2.47;;
15889;SDS011;8043;49.388;12.128;2022-12-29T02:58:25;5.23;;;2.13;;
15889;SDS011;8043;49.388;12.128;2022-12-29T03:08:47;2.47;;;2.00;;
15889;SDS011;8043;49.388;12.128;2022-12-29T03:13:52;3.17;;;2.00;;
15889;SDS011;8043;49.388;12.128;2022-12-29T03:19:28;3.17;;;2.47;;
15889;SDS011;8043;49.388;12.128;2022-12-29T03:24:42;3.73;;;2.07;;
15889;SDS011;8043;49.388;12.128;2022-12-29T03:29:41;3.77;;;2.50;;
15889;SDS011;8043;49.388;12.128;2022-12-29T03:34:46;2.30;;;2.10;;
15889;SDS011;8043;49.388;12.128;2022-12-29T03:39:49;4.03;;;1.97;;
15889;SDS011;8043;49.388;12.128;2022-12-29T03:44:53;3.57;;;2.37;;
15889;SDS011;8043;49.388;12.128;2022-12-29T03:49:56;3.20;;;2.07;;
15889;SDS011;8043;49.388;12.128;2022-12-29T03:54:58;3.73;;;2.40;;
15889;SDS011;8043;49.388;12.128;2022-12-29T04:00:01;4.20;;;2.30;;
15889;SDS011;8043;49.388;12.128;2022-12-29T04:05:04;3.97;;;2.07;;
15889;SDS011;8043;49.388;12.128;2022-12-29T04:10:07;6.23;;;3.30;;
15889;SDS011;8043;49.388;12.128;2022-12-29T04:15:09;2.60;;;1.87;;
15889;SDS011;8043;49.388;12.128;2022-12-29T04:20:11;1.80;;;1.70;;
15889;SDS011;8043;49.388;12.128;2022-12-29T04:25:32;4.27;;;2.00;;
15889;SDS011;8043;49.388;12.128;2022-12-29T04:30:34;3.03;;;2.03;;
15889;SDS011;8043;49.388;12.128;2022-12-29T04:35:37;3.07;;;2.10;;
15889;SDS011;8043;49.388;12.128;2022-12-29T04:40:39;3.73;;;2.03;;
15889;SDS011;8043;49.388;12.128;2022-12-29T04:45:43;2.90;;;1.40;;
15889;SDS011;8043;49.388;12.128;2022-12-29T04:50:51;3.80;;;2.20;;
15889;SDS011;8043;49.388;12.128;2022-12-29T04:55:50;3.30;;;1.70;;
15889;SDS011;8043;49.388;12.128;2022-12-29T05:00:53;3.07;;;1.90;;
15889;SDS011;8043;49.388;12.128;2022-12-29T05:05:55;2.30;;;1.90;;
15889;SDS011;8043;49.388;12.128;2022-12-29T05:10:58;3.07;;;1.83;;
15889;SDS011;8043;49.388;12.128;2022-12-29T05:16:00;3.63;;;1.80;;
15889;SDS011;8043;49.388;12.128;2022-12-29T05:21:02;3.67;;;1.70;;
15889;SDS011;8043;49.388;12.128;2022-12-29T05:26:05;3.20;;;2.37;;
15889;SDS011;8043;49.388;12.128;2022-12-29T05:31:07;3.30;;;2.13;;
15889;SDS011;8043;49.388;12.128;2022-12-29T05:36:09;4.00;;;2.50;;
15889;SDS011;8043;49.388;12.128;2022-12-29T05:41:11;2.13;;;1.47;;
15889;SDS011;8043;49.388;12.128;2022-12-29T05:46:14;2.77;;;1.47;;
15889;SDS011;8043;49.388;12.128;2022-12-29T05:51:16;2.80;;;1.77;;
15889;SDS011;8043;49.388;12.128;2022-12-29T05:56:18;4.33;;;2.50;;
15889;SDS011;8043;49.388;12.128;2022-12-29T06:01:21;2.33;;;1.60;;
15889;SDS011;8043;49.388;12.128;2022-12-29T06:06:23;2.73;;;1.23;;
15889;SDS011;8043;49.388;12.128;2022-12-29T06:11:25;2.60;;;1.67;;
15889;SDS011;8043;49.388;12.128;2022-12-29T06:16:27;2.23;;;1.73;;
15889;SDS011;8043;49.388;12.128;2022-12-29T06:21:29;4.03;;;1.80;;
15889;SDS011;8043;49.388;12.128;2022-12-29T06:26:31;2.03;;;1.60;;
15889;SDS011;8043;49.388;12.128;2022-12-29T06:31:34;3.83;;;2.13;;
15889;SDS011;8043;49.388;12.128;2022-12-29T06:36:36;1.47;;;1.37;;
15889;SDS011;8043;49.388;12.128;2022-12-29T06:41:38;2.07;;;1.30;;
15889;SDS011;8043;49.388;12.128;2022-12-29T06:46:40;1.47;;;1.30;;
15889;SDS011;8043;49.388;12.128;2022-12-29T06:51:42;4.30;;;2.23;;
15889;SDS011;8043;49.388;12.128;2022-12-29T06:56:44;2.60;;;1.70;;
15889;SDS011;8043;49.388;12.128;2022-12-29T07:01:47;4.03;;;1.63;;
15889;SDS011;8043;49.388;12.128;2022-12-29T07:06:49;1.83;;;1.43;;
15889;SDS011;8043;49.388;12.128;2022-12-29T07:11:51;3.57;;;2.17;;
15889;SDS011;8043;49.388;12.128;2022-12-29T07:16:53;1.60;;;1.37;;
15889;SDS011;8043;49.388;12.128;2022-12-29T07:21:55;2.93;;;1.83;;
15889;SDS011;8043;49.388;12.128;2022-12-29T07:26:58;2.73;;;1.90;;
15889;SDS011;8043;49.388;12.128;2022-12-29T07:32:00;2.00;;;1.63;;
15889;SDS011;8043;49.388;12.128;2022-12-29T07:37:02;2.50;;;1.70;;
15889;SDS011;8043;49.388;12.128;2022-12-29T07:42:04;2.93;;;1.67;;
15889;SDS011;8043;49.388;12.128;2022-12-29T07:47:06;2.77;;;1.80;;
15889;SDS011;8043;49.388;12.128;2022-12-29T07:52:09;2.50;;;2.03;;
15889;SDS011;8043;49.388;12.128;2022-12-29T07:57:11;3.03;;;1.50;;
15889;SDS011;8043;49.388;12.128;2022-12-29T08:02:13;4.73;;;1.53;;
15889;SDS011;8043;49.388;12.128;2022-12-29T08:07:16;3.23;;;2.00;;
15889;SDS011;8043;49.388;12.128;2022-12-29T08:12:18;3.33;;;1.47;;
15889;SDS011;8043;49.388;12.128;2022-12-29T08:17:20;2.43;;;2.03;;
15889;SDS011;8043;49.388;12.128;2022-12-29T08:22:23;2.67;;;1.90;;
15889;SDS011;8043;49.388;12.128;2022-12-29T08:27:25;3.33;;;2.23;;
15889;SDS011;8043;49.388;12.128;2022-12-29T08:32:28;3.23;;;1.93;;
15889;SDS011;8043;49.388;12.128;2022-12-29T08:37:31;6.10;;;3.00;;
15889;SDS011;8043;49.388;12.128;2022-12-29T08:42:34;3.77;;;2.30;;
15889;SDS011;8043;49.388;12.128;2022-12-29T08:47:36;2.97;;;2.30;;
15889;SDS011;8043;49.388;12.128;2022-12-29T08:52:38;2.17;;;1.83;;
15889;SDS011;8043;49.388;12.128;2022-12-29T08:57:40;2.40;;;1.77;;
15889;SDS011;8043;49.388;12.128;2022-12-29T09:02:43;4.53;;;1.80;;
15889;SDS011;8043;49.388;12.128;2022-12-29T09:07:45;3.07;;;2.00;;
15889;SDS011;8043;49.388;12.128;2022-12-29T09:12:47;2.80;;;2.13;;
15889;SDS011;8043;49.388;12.128;2022-12-29T09:17:49;2.63;;;1.53;;
15889;SDS011;8043;49.388;12.128;2022-12-29T09:22:52;3.20;;;1.70;;
15889;SDS011;8043;49.388;12.128;2022-12-29T09:27:54;3.77;;;1.67;;
15889;SDS011;8043;49.388;12.128;2022-12-29T09:32:56;2.80;;;1.90;;
15889;SDS011;8043;49.388;12.128;2022-12-29T09:37:58;5.00;;;2.50;;
15889;SDS011;8043;49.388;12.128;2022-12-29T09:48:33;4.17;;;1.63;;
15889;SDS011;8043;49.388;12.128;2022-12-29T09:53:49;3.70;;;1.97;;
15889;SDS011;8043;49.388;12.128;2022-12-29T09:58:52;2.70;;;1.83;;
15889;SDS011;8043;49.388;12.128;2022-12-29T10:04:03;2.83;;;1.70;;
15889;SDS011;8043;49.388;12.128;2022-12-29T10:14:33;2.30;;;1.80;;
15889;SDS011;8043;49.388;12.128;2022-12-29T10:25:12;5.87;;;2.30;;
15889;SDS011;8043;49.388;12.128;2022-12-29T10:30:15;6.17;;;2.47;;
15889;SDS011;8043;49.388;12.128;2022-12-29T10:35:26;4.20;;;1.90;;
15889;SDS011;8043;49.388;12.128;2022-12-29T10:45:51;6.90;;;2.40;;
15889;SDS011;8043;49.388;12.128;2022-12-29T10:50:55;4.40;;;1.77;;
15889;SDS011;8043;49.388;12.128;2022-12-29T10:55:59;3.47;;;2.03;;
15889;SDS011;8043;49.388;12.128;2022-12-29T11:01:02;2.27;;;1.90;;
15889;SDS011;8043;49.388;12.128;2022-12-29T11:06:17;3.43;;;2.40;;
15889;SDS011;8043;49.388;12.128;2022-12-29T11:11:27;5.63;;;2.23;;
15889;SDS011;8043;49.388;12.128;2022-12-29T11:16:36;2.70;;;2.40;;
15889;SDS011;8043;49.388;12.128;2022-12-29T11:21:39;3.80;;;2.20;;
15889;SDS011;8043;49.388;12.128;2022-12-29T11:26:43;3.63;;;2.10;;
15889;SDS011;8043;49.388;12.128;2022-12-29T11:31:55;5.60;;;2.20;;
15889;SDS011;8043;49.388;12.128;2022-12-29T11:37:18;3.63;;;2.30;;
15889;SDS011;8043;49.388;12.128;2022-12-29T11:42:20;2.53;;;1.73;;
15889;SDS011;8043;49.388;12.128;2022-12-29T11:52:29;4.07;;;2.17;;
15889;SDS011;8043;49.388;12.128;2022-12-29T11:57:35;3.03;;;1.70;;
15889;SDS011;8043;49.388;12.128;2022-12-29T12:02:42;2.73;;;1.80;;
15889;SDS011;8043;49.388;12.128;2022-12-29T12:07:54;2.13;;;1.70;;
15889;SDS011;8043;49.388;12.128;2022-12-29T12:18:26;4.47;;;1.70;;
15889;SDS011;8043;49.388;12.128;2022-12-29T12:23:29;3.30;;;2.07;;
15889;SDS011;8043;49.388;12.128;2022-12-29T12:29:04;3.13;;;1.87;;
15889;SDS011;8043;49.388;12.128;2022-12-29T12:34:16;5.07;;;2.30;;
15889;SDS011;8043;49.388;12.128;2022-12-29T12:39:25;2.67;;;2.00;;
15889;SDS011;8043;49.388;12.128;2022-12-29T12:44:50;3.43;;;2.00;;
15889;SDS011;8043;49.388;12.128;2022-12-29T12:50:10;9.07;;;3.07;;
15889;SDS011;8043;49.388;12.128;2022-12-29T12:55:27;5.10;;;1.87;;
15889;SDS011;8043;49.388;12.128;2022-12-29T13:00:45;4.83;;;2.27;;
15889;SDS011;8043;49.388;12.128;2022-12-29T13:16:58;7.00;;;2.83;;
15889;SDS011;8043;49.388;12.128;2022-12-29T13:22:07;2.40;;;1.60;;
15889;SDS011;8043;49.388;12.128;2022-12-29T13:27:23;2.33;;;2.00;;
15889;SDS011;8043;49.388;12.128;2022-12-29T13:37:34;3.60;;;2.37;;
15889;SDS011;8043;49.388;12.128;2022-12-29T13:42:39;2.83;;;1.93;;
15889;SDS011;8043;49.388;12.128;2022-12-29T13:47:44;3.20;;;2.00;;
15889;SDS011;8043;49.388;12.128;2022-12-29T13:53:11;3.07;;;1.90;;
15889;SDS011;8043;49.388;12.128;2022-12-29T14:03:51;3.47;;;1.70;;
15889;SDS011;8043;49.388;12.128;2022-12-29T14:08:59;4.13;;;2.00;;
15889;SDS011;8043;49.388;12.128;2022-12-29T14:14:12;4.77;;;2.17;;
15889;SDS011;8043;49.388;12.128;2022-12-29T14:19:26;2.13;;;1.40;;
15889;SDS011;8043;49.388;12.128;2022-12-29T14:24:39;4.03;;;1.80;;
15889;SDS011;8043;49.388;12.128;2022-12-29T14:34:44;3.70;;;2.50;;
15889;SDS011;8043;49.388;12.128;2022-12-29T14:39:47;2.03;;;1.80;;
15889;SDS011;8043;49.388;12.128;2022-12-29T14:44:50;4.10;;;2.00;;
15889;SDS011;8043;49.388;12.128;2022-12-29T14:49:54;6.13;;;2.27;;
15889;SDS011;8043;49.388;12.128;2022-12-29T14:54:57;7.80;;;2.87;;
15889;SDS011;8043;49.388;12.128;2022-12-29T15:00:05;4.73;;;2.53;;
15889;SDS011;8043;49.388;12.128;2022-12-29T15:05:44;5.57;;;2.77;;
15889;SDS011;8043;49.388;12.128;2022-12-29T15:10:43;5.63;;;2.43;;
15889;SDS011;8043;49.388;12.128;2022-12-29T15:15:43;4.47;;;2.23;;
15889;SDS011;8043;49.388;12.128;2022-12-29T15:20:45;6.00;;;2.63;;
15889;SDS011;8043;49.388;12.128;2022-12-29T15:25:53;4.77;;;3.20;;
15889;SDS011;8043;49.388;12.128;2022-12-29T15:30:57;3.73;;;2.33;;
15889;SDS011;8043;49.388;12.128;2022-12-29T15:36:10;4.73;;;2.47;;
15889;SDS011;8043;49.388;12.128;2022-12-29T15:41:22;7.00;;;2.43;;
15889;SDS011;8043;49.388;12.128;2022-12-29T15:46:23;5.90;;;3.60;;
15889;SDS011;8043;49.388;12.128;2022-12-29T15:51:28;5.93;;;3.30;;
15889;SDS011;8043;49.388;12.128;2022-12-29T15:56:33;6.03;;;3.33;;
15889;SDS011;8043;49.388;12.128;2022-12-29T16:01:36;7.10;;;3.73;;
15889;SDS011;8043;49.388;12.128;2022-12-29T16:06:39;5.13;;;3.47;;
15889;SDS011;8043;49.388;12.128;2022-12-29T16:12:04;9.20;;;4.03;;
15889;SDS011;8043;49.388;12.128;2022-12-29T16:17:09;6.30;;;3.53;;
15889;SDS011;8043;49.388;12.128;2022-12-29T16:22:57;7.93;;;4.23;;
15889;SDS011;8043;49.388;12.128;2022-12-29T16:27:31;10.90;;;4.97;;
15889;SDS011;8043;49.388;12.128;2022-12-29T16:32:44;9.97;;;4.00;;
15889;SDS011;8043;49.388;12.128;2022-12-29T16:37:44;11.37;;;4.87;;
15889;SDS011;8043;49.388;12.128;2022-12-29T16:42:47;7.10;;;3.87;;
15889;SDS011;8043;49.388;12.128;2022-12-29T16:48:36;8.10;;;3.90;;
15889;SDS011;8043;49.388;12.128;2022-12-29T16:52:58;7.40;;;3.40;;
15889;SDS011;8043;49.388;12.128;2022-12-29T16:58:00;8.23;;;3.83;;
15889;SDS011;8043;49.388;12.128;2022-12-29T17:03:02;8.10;;;3.73;;
15889;SDS011;8043;49.388;12.128;2022-12-29T17:08:18;9.27;;;4.13;;
15889;SDS011;8043;49.388;12.128;2022-12-29T17:13:23;6.07;;;3.70;;
15889;SDS011;8043;49.388;12.128;2022-12-29T17:18:26;8.50;;;3.77;;
15889;SDS011;8043;49.388;12.128;2022-12-29T17:23:29;6.30;;;3.93;;
15889;SDS011;8043;49.388;12.128;2022-12-29T17:28:32;7.23;;;4.20;;
15889;SDS011;8043;49.388;12.128;2022-12-29T17:33:36;7.97;;;4.00;;
15889;SDS011;8043;49.388;12.128;2022-12-29T17:38:41;6.70;;;3.60;;
15889;SDS011;8043;49.388;12.128;2022-12-29T17:43:43;10.70;;;4.67;;
15889;SDS011;8043;49.388;12.128;2022-12-29T17:48:46;8.17;;;4.30;;
15889;SDS011;8043;49.388;12.128;2022-12-29T17:53:48;7.93;;;3.27;;
15889;SDS011;8043;49.388;12.128;2022-12-29T17:58:51;8.80;;;4.87;;
15889;SDS011;8043;49.388;12.128;2022-12-29T18:03:55;8.50;;;4.83;;
15889;SDS011;8043;49.388;12.128;2022-12-29T18:08:57;9.53;;;4.63;;
15889;SDS011;8043;49.388;12.128;2022-12-29T18:14:00;5.43;;;3.87;;
15889;SDS011;8043;49.388;12.128;2022-12-29T18:19:02;5.60;;;3.27;;
15889;SDS011;8043;49.388;12.128;2022-12-29T18:24:04;6.80;;;3.20;;
15889;SDS011;8043;49.388;12.128;2022-12-29T18:29:07;9.47;;;3.30;;
15889;SDS011;8043;49.388;12.128;2022-12-29T18:34:12;4.97;;;2.77;;
15889;SDS011;8043;49.388;12.128;2022-12-29T18:39:16;7.33;;;4.47;;
15889;SDS011;8043;49.388;12.128;2022-12-29T18:44:18;12.10;;;6.10;;
15889;SDS011;8043;49.388;12.128;2022-12-29T18:49:21;12.10;;;5.03;;
15889;SDS011;8043;49.388;12.128;2022-12-29T18:54:27;13.47;;;5.20;;
15889;SDS011;8043;49.388;12.128;2022-12-29T18:59:30;16.20;;;8.10;;
15889;SDS011;8043;49.388;12.128;2022-12-29T19:04:33;6.27;;;3.43;;
15889;SDS011;8043;49.388;12.128;2022-12-29T19:09:35;11.10;;;5.13;;
15889;SDS011;8043;49.388;12.128;2022-12-29T19:14:37;5.10;;;3.47;;
15889;SDS011;8043;49.388;12.128;2022-12-29T19:19:40;4.90;;;1.97;;
15889;SDS011;8043;49.388;12.128;2022-12-29T19:24:42;3.13;;;2.10;;
15889;SDS011;8043;49.388;12.128;2022-12-29T19:29:44;4.50;;;2.70;;
15889;SDS011;8043;49.388;12.128;2022-12-29T19:34:46;3.87;;;2.43;;
15889;SDS011;8043;49.388;12.128;2022-12-29T19:39:49;3.73;;;2.27;;
15889;SDS011;8043;49.388;12.128;2022-12-29T19:44:52;3.20;;;1.93;;
15889;SDS011;8043;49.388;12.128;2022-12-29T19:49:54;2.63;;;1.40;;
15889;SDS011;8043;49.388;12.128;2022-12-29T19:54:57;4.17;;;2.57;;
15889;SDS011;8043;49.388;12.128;2022-12-29T20:00:00;5.00;;;2.13;;
15889;SDS011;8043;49.388;12.128;2022-12-29T20:05:02;4.57;;;1.83;;
15889;SDS011;8043;49.388;12.128;2022-12-29T20:10:05;2.17;;;1.87;;
15889;SDS011;8043;49.388;12.128;2022-12-29T20:15:08;4.13;;;2.47;;
15889;SDS011;8043;49.388;12.128;2022-12-29T20:20:11;2.10;;;1.63;;
15889;SDS011;8043;49.388;12.128;2022-12-29T20:25:13;6.50;;;2.50;;
15889;SDS011;8043;49.388;12.128;2022-12-29T20:30:15;4.70;;;2.00;;
15889;SDS011;8043;49.388;12.128;2022-12-29T20:35:19;3.63;;;1.77;;
15889;SDS011;8043;49.388;12.128;2022-12-29T20:40:21;5.10;;;2.60;;
15889;SDS011;8043;49.388;12.128;2022-12-29T20:45:24;3.70;;;2.03;;
15889;SDS011;8043;49.388;12.128;2022-12-29T20:50:26;6.30;;;2.60;;
15889;SDS011;8043;49.388;12.128;2022-12-29T20:55:28;2.67;;;1.40;;
15889;SDS011;8043;49.388;12.128;2022-12-29T21:00:31;3.53;;;1.20;;
15889;SDS011;8043;49.388;12.128;2022-12-29T21:05:34;2.63;;;1.37;;
15889;SDS011;8043;49.388;12.128;2022-12-29T21:10:37;1.73;;;1.00;;
15889;SDS011;8043;49.388;12.128;2022-12-29T21:15:40;3.37;;;1.27;;
15889;SDS011;8043;49.388;12.128;2022-12-29T21:20:42;3.17;;;1.40;;
15889;SDS011;8043;49.388;12.128;2022-12-29T21:25:44;1.70;;;0.85;;
15889;SDS011;8043;49.388;12.128;2022-12-29T21:30:47;2.80;;;1.00;;
15889;SDS011;8043;49.388;12.128;2022-12-29T21:35:50;2.97;;;0.87;;
15889;SDS011;8043;49.388;12.128;2022-12-29T21:40:52;2.23;;;0.80;;
15889;SDS011;8043;49.388;12.128;2022-12-29T21:45:54;4.33;;;0.93;;
15889;SDS011;8043;49.388;12.128;2022-12-29T21:50:57;0.83;;;0.70;;
15889;SDS011;8043;49.388;12.128;2022-12-29T21:56:29;1.10;;;0.70;;
15889;SDS011;8043;49.388;12.128;2022-12-29T22:01:32;5.93;;;1.87;;
15889;SDS011;8043;49.388;12.128;2022-12-29T22:06:54;1.17;;;1.05;;
15889;SDS011;8043;49.388;12.128;2022-12-29T22:12:13;0.83;;;0.57;;
15889;SDS011;8043;49.388;12.128;2022-12-29T22:17:34;2.13;;;0.93;;
15889;SDS011;8043;49.388;12.128;2022-12-29T22:22:37;2.37;;;1.23;;
15889;SDS011;8043;49.388;12.128;2022-12-29T22:27:39;8.20;;;2.17;;
15889;SDS011;8043;49.388;12.128;2022-12-29T22:32:41;5.93;;;2.50;;
15889;SDS011;8043;49.388;12.128;2022-12-29T22:37:44;5.90;;;2.33;;
15889;SDS011;8043;49.388;12.128;2022-12-29T22:42:46;4.23;;;2.30;;
15889;SDS011;8043;49.388;12.128;2022-12-29T22:47:48;0.40;;;0.40;;
15889;SDS011;8043;49.388;12.128;2022-12-29T22:52:50;5.73;;;0.70;;
15889;SDS011;8043;49.388;12.128;2022-12-29T22:57:53;0.90;;;0.60;;
15889;SDS011;8043;49.388;12.128;2022-12-29T23:02:55;1.53;;;0.83;;
15889;SDS011;8043;49.388;12.128;2022-12-29T23:07:57;0.90;;;0.67;;
15889;SDS011;8043;49.388;12.128;2022-12-29T23:13:02;1.23;;;0.53;;
15889;SDS011;8043;49.388;12.128;2022-12-29T23:18:05;0.97;;;0.30;;
15889;SDS011;8043;49.388;12.128;2022-12-29T23:23:07;1.17;;;0.50;;
15889;SDS011;8043;49.388;12.128;2022-12-29T23:28:10;1.53;;;0.87;;
15889;SDS011;8043;49.388;12.128;2022-12-29T23:33:12;1.23;;;0.20;;
15889;SDS011;8043;49.388;12.128;2022-12-29T23:38:14;0.30;;;0.30;;
15889;SDS011;8043;49.388;12.128;2022-12-29T23:43:16;0.30;;;0.30;;
15889;SDS011;8043;49.388;12.128;2022-12-29T23:48:18;0.13;;;0.13;;
15889;SDS011;8043;49.388;12.128;2022-12-29T23:53:21;0.67;;;0.30;;
15889;SDS011;8043;49.388;12.128;2022-12-29T23:58:23;1.90;;;0.40;;
